Time;durP1;ratioP1;P1;durP2;ratioP2;P2;SDS_P1;SDS_P2;PMS_P1;PMS_P2;Temp;Humidity;BMP_temperature;BMP_pressure;BME280_temperature;BME280_humidity;BME280_pressure;Samples;Min_cycle;Max_cycle;Signal;HPM_P1;HPM_P2
2022/03/21 00:00:42;;;;;;;4.05;1.58;;;2.70;99.90;;;;;;4926460;29;20400;-87
2022/03/21 00:03:12;;;;;;;6.63;1.60;;;2.70;99.90;;;;;;4954692;29;20389;-86
2022/03/21 00:05:40;;;;;;;4.78;1.40;;;2.70;99.90;;;;;;4954848;29;20451;-87
2022/03/21 00:08:10;;;;;;;5.30;1.50;;;2.70;99.90;;;;;;4955759;29;20393;-85
2022/03/21 00:10:39;;;;;;;4.43;1.33;;;2.70;99.90;;;;;;4938687;29;20456;-85
2022/03/21 00:13:07;;;;;;;6.40;1.30;;;2.70;99.90;;;;;;4938603;29;20479;-84
2022/03/21 00:15:35;;;;;;;4.38;1.50;;;2.70;99.90;;;;;;4955701;29;20640;-86
2022/03/21 00:18:04;;;;;;;3.65;1.33;;;2.70;99.90;;;;;;4938452;29;20411;-85
2022/03/21 00:20:33;;;;;;;3.63;1.20;;;2.70;99.90;;;;;;4954206;29;20895;-85
2022/03/21 00:23:02;;;;;;;5.95;1.60;;;2.70;99.90;;;;;;4938283;29;20393;-85
2022/03/21 00:25:29;;;;;;;4.13;1.05;;;2.70;99.90;;;;;;4937644;29;20916;-86
2022/03/21 00:27:58;;;;;;;4.93;1.45;;;2.70;99.90;;;;;;4953883;29;20408;-85
2022/03/21 00:30:27;;;;;;;6.20;1.27;;;2.70;99.90;;;;;;4926718;29;20410;-85
2022/03/21 00:32:55;;;;;;;4.60;1.40;;;2.60;99.90;;;;;;4950514;29;20402;-85
2022/03/21 00:35:23;;;;;;;4.50;1.23;;;2.60;99.90;;;;;;4966458;28;20404;-85
2022/03/21 00:37:51;;;;;;;5.10;1.40;;;2.60;99.90;;;;;;4935976;29;20483;-86
2022/03/21 00:40:19;;;;;;;4.65;1.40;;;2.50;99.90;;;;;;4935732;29;20409;-85
2022/03/21 00:42:49;;;;;;;5.05;1.38;;;2.60;99.90;;;;;;4935961;29;20397;-85
2022/03/21 00:45:27;;;;;;;6.45;1.55;;;2.50;99.90;;;;;;4935869;29;20476;-86
2022/03/21 00:47:55;;;;;;;3.17;1.23;;;2.40;99.90;;;;;;4935805;29;20481;-84
2022/03/21 00:50:24;;;;;;;3.60;1.25;;;2.50;99.90;;;;;;4934522;29;20901;-85
2022/03/21 00:52:54;;;;;;;4.25;1.40;;;2.40;99.90;;;;;;4934898;29;20745;-83
2022/03/21 00:55:31;;;;;;;5.78;1.20;;;2.40;99.90;;;;;;4935624;29;20864;-85
2022/03/21 00:57:59;;;;;;;4.70;1.40;;;2.40;99.90;;;;;;4934547;29;20449;-86
2022/03/21 01:00:29;;;;;;;4.88;1.38;;;2.40;99.90;;;;;;4934314;29;20476;-85
2022/03/21 01:02:59;;;;;;;9.73;1.58;;;2.40;99.90;;;;;;4950225;29;20406;-85
2022/03/21 01:05:27;;;;;;;3.70;1.38;;;2.40;99.90;;;;;;4934356;29;20553;-85
2022/03/21 01:07:56;;;;;;;4.38;1.38;;;2.30;99.90;;;;;;4934404;29;20421;-85
2022/03/21 01:10:25;;;;;;;4.68;1.35;;;2.30;99.90;;;;;;4934341;29;20405;-85
2022/03/21 01:12:54;;;;;;;4.43;1.33;;;2.30;99.90;;;;;;4934154;29;20393;-85
2022/03/21 01:15:24;;;;;;;2.90;1.30;;;2.30;99.90;;;;;;4935398;29;20402;-85
2022/03/21 01:17:53;;;;;;;2.72;1.10;;;2.20;99.90;;;;;;4935315;29;20393;-85
2022/03/21 01:20:22;;;;;;;4.40;1.45;;;2.10;99.90;;;;;;4933997;29;20405;-85
2022/03/21 01:22:50;;;;;;;4.60;1.20;;;2.10;99.90;;;;;;4949840;29;20410;-85
2022/03/21 01:25:19;;;;;;;4.13;1.13;;;2.10;99.90;;;;;;4933878;29;20410;-88
2022/03/21 01:27:47;;;;;;;4.43;1.25;;;2.00;99.90;;;;;;4933546;29;20468;-85
2022/03/21 01:30:16;;;;;;;5.03;1.40;;;2.00;99.90;;;;;;4934976;29;20394;-85
2022/03/21 01:32:45;;;;;;;5.45;1.48;;;2.00;99.90;;;;;;4933835;29;20390;-85
2022/03/21 01:35:16;;;;;;;2.87;1.20;;;2.00;99.90;;;;;;4917664;29;20897;-85
2022/03/21 01:37:45;;;;;;;3.75;1.50;;;2.00;99.90;;;;;;4916387;29;20416;-85
2022/03/21 01:40:14;;;;;;;7.85;1.70;;;2.00;99.90;;;;;;4934263;29;20756;-85
2022/03/21 01:42:46;;;;;;;5.70;1.48;;;2.00;99.90;;;;;;4946383;29;20485;-86
2022/03/21 01:45:16;;;;;;;3.50;1.20;;;1.90;99.90;;;;;;4946365;29;20444;-85
2022/03/21 01:47:45;;;;;;;3.33;1.13;;;1.90;99.90;;;;;;4916063;29;20895;-84
2022/03/21 01:50:14;;;;;;;5.28;1.27;;;1.90;99.90;;;;;;4946298;29;20412;-85
2022/03/21 01:52:43;;;;;;;4.63;1.20;;;1.90;99.90;;;;;;4930106;29;20902;-85
2022/03/21 01:57:59;;;;;;;5.93;1.40;;;1.80;99.90;;;;;;4914377;29;20407;-84
2022/03/21 02:00:27;;;;;;;3.28;1.25;;;1.80;99.90;;;;;;4929959;29;20496;-85
2022/03/21 02:02:55;;;;;;;3.95;1.20;;;1.80;99.90;;;;;;4914551;29;20902;-85
2022/03/21 02:05:22;;;;;;;4.15;1.20;;;1.70;99.90;;;;;;4930045;29;20392;-85
2022/03/21 02:07:51;;;;;;;4.38;1.38;;;1.70;99.90;;;;;;4945998;29;20395;-85
2022/03/21 02:10:19;;;;;;;6.43;1.50;;;1.70;99.90;;;;;;4914108;29;20402;-85
2022/03/21 02:12:46;;;;;;;3.42;1.30;;;1.60;99.90;;;;;;4898618;29;20403;-85
2022/03/21 02:15:14;;;;;;;3.67;1.30;;;1.70;99.90;;;;;;4914101;29;20894;-85
2022/03/21 02:17:45;;;;;;;5.17;1.20;;;1.70;99.90;;;;;;4915469;29;20770;-85
2022/03/21 02:20:19;;;;;;;3.95;1.30;;;1.70;99.90;;;;;;4915355;29;20411;-85
2022/03/21 02:22:49;;;;;;;4.72;1.30;;;1.70;99.90;;;;;;4915680;29;20403;-85
2022/03/21 02:25:41;;;;;;;5.15;1.55;;;1.70;99.90;;;;;;4929774;29;20775;-85
2022/03/21 02:28:15;;;;;;;5.90;1.70;;;1.70;99.90;;;;;;4929675;29;20471;-85
2022/03/21 02:30:49;;;;;;;5.53;1.60;;;1.70;99.90;;;;;;4928871;29;21621;-84
2022/03/21 02:33:17;;;;;;;6.23;1.47;;;1.70;99.90;;;;;;4945633;29;20400;-85
2022/03/21 02:35:49;;;;;;;3.90;1.35;;;1.70;99.90;;;;;;4945773;29;20415;-85
2022/03/21 02:38:19;;;;;;;4.82;1.40;;;1.70;99.90;;;;;;4929717;29;20408;-86
2022/03/21 02:40:46;;;;;;;5.95;1.30;;;1.60;99.90;;;;;;4929950;29;20415;-84
2022/03/21 02:43:14;;;;;;;5.67;1.50;;;1.60;99.90;;;;;;4898415;29;20400;-87
2022/03/21 02:45:43;;;;;;;5.05;1.23;;;1.50;99.90;;;;;;4915061;29;20408;-87
2022/03/21 02:48:13;;;;;;;4.50;1.30;;;1.50;99.90;;;;;;4917463;29;20399;-87
2022/03/21 02:50:59;;;;;;;4.60;1.30;;;1.50;99.90;;;;;;4933275;29;20404;-87
2022/03/21 02:53:32;;;;;;;5.07;1.58;;;1.40;99.90;;;;;;4918839;29;20867;-86
2022/03/21 02:56:00;;;;;;;4.82;1.40;;;1.40;99.90;;;;;;4949188;29;20422;-86
2022/03/21 02:58:27;;;;;;;6.53;1.58;;;1.40;99.90;;;;;;4917353;29;20902;-85
2022/03/21 03:01:13;;;;;;;7.55;1.20;;;1.40;99.90;;;;;;4933128;29;20417;-85
2022/03/21 03:03:41;;;;;;;4.55;1.25;;;1.30;99.90;;;;;;4918654;29;20399;-86
2022/03/21 03:06:09;;;;;;;5.00;1.45;;;1.30;99.90;;;;;;4917414;29;20823;-86
2022/03/21 03:08:40;;;;;;;4.27;1.17;;;1.30;99.90;;;;;;4949098;29;20510;-87
2022/03/21 03:11:08;;;;;;;4.55;1.00;;;1.30;99.90;;;;;;4917470;29;20403;-86
2022/03/21 03:13:35;;;;;;;4.90;1.33;;;1.20;99.90;;;;;;4917137;29;20409;-85
2022/03/21 03:16:04;;;;;;;5.05;1.27;;;1.20;99.90;;;;;;4917241;29;20418;-85
2022/03/21 03:18:31;;;;;;;5.07;1.15;;;1.20;99.90;;;;;;4917141;29;20400;-85
2022/03/21 03:20:59;;;;;;;4.47;1.40;;;1.20;99.90;;;;;;4916992;29;20810;-85
2022/03/21 03:23:30;;;;;;;3.78;1.48;;;1.20;99.90;;;;;;4918363;29;20447;-86
2022/03/21 03:26:00;;;;;;;5.32;1.48;;;1.20;99.90;;;;;;4932614;29;20430;-85
2022/03/21 03:28:29;;;;;;;5.47;1.45;;;1.20;99.90;;;;;;4948563;29;20404;-85
2022/03/21 03:31:14;;;;;;;3.03;1.30;;;1.10;99.90;;;;;;4918216;29;20399;-86
2022/03/21 03:33:45;;;;;;;6.33;1.70;;;1.10;99.90;;;;;;4948770;29;20405;-84
2022/03/21 03:36:15;;;;;;;3.63;1.20;;;1.10;99.90;;;;;;4948558;29;20936;-85
2022/03/21 03:38:44;;;;;;;3.40;1.27;;;1.00;99.90;;;;;;4916705;29;20925;-85
2022/03/21 03:41:12;;;;;;;4.63;1.20;;;1.00;99.90;;;;;;4917956;29;20419;-86
2022/03/21 03:43:39;;;;;;;4.40;1.43;;;1.00;99.90;;;;;;4917989;29;20815;-85
2022/03/21 03:46:07;;;;;;;5.68;1.38;;;0.90;99.90;;;;;;4916728;29;20411;-85
2022/03/21 03:48:35;;;;;;;4.90;1.30;;;0.90;99.90;;;;;;4948260;29;20811;-86
2022/03/21 03:51:03;;;;;;;6.30;1.38;;;0.90;99.90;;;;;;4948350;29;20853;-85
2022/03/21 03:53:31;;;;;;;4.80;1.20;;;0.90;99.90;;;;;;4916660;29;20499;-85
2022/03/21 03:55:59;;;;;;;5.13;1.30;;;0.90;99.90;;;;;;4922433;29;20412;-85
2022/03/21 03:58:26;;;;;;;4.53;1.23;;;0.90;99.90;;;;;;4943194;28;20394;-84
2022/03/21 04:00:54;;;;;;;2.97;1.17;;;0.90;99.90;;;;;;4934786;29;20413;-85
2022/03/21 04:06:08;;;;;;;4.57;1.55;;;0.70;99.90;;;;;;4935354;29;20408;-85
2022/03/21 04:08:35;;;;;;;5.22;1.60;;;0.60;99.90;;;;;;4935279;29;20813;-85
2022/03/21 04:11:03;;;;;;;4.72;1.40;;;0.60;99.90;;;;;;4935351;29;20505;-85
2022/03/21 04:13:30;;;;;;;3.90;1.10;;;0.50;99.90;;;;;;4935247;29;20398;-85
2022/03/21 04:15:58;;;;;;;4.15;1.38;;;0.50;99.90;;;;;;4935182;29;20426;-86
2022/03/21 04:18:26;;;;;;;4.97;1.30;;;0.40;99.90;;;;;;4935356;29;20406;-85
2022/03/21 04:21:13;;;;;;;4.60;1.38;;;0.40;99.90;;;;;;4936231;29;20943;-84
2022/03/21 04:23:41;;;;;;;5.70;1.55;;;0.30;99.90;;;;;;4936203;29;20445;-84
2022/03/21 04:26:10;;;;;;;5.88;1.38;;;0.30;99.90;;;;;;4934674;29;20800;-85
2022/03/21 04:28:38;;;;;;;3.05;1.00;;;0.30;99.90;;;;;;4936163;29;20405;-85
2022/03/21 04:31:05;;;;;;;5.97;1.13;;;0.30;99.90;;;;;;4934790;29;20453;-85
2022/03/21 04:33:33;;;;;;;4.35;1.27;;;0.30;99.90;;;;;;4934821;29;20738;-85
2022/03/21 04:36:00;;;;;;;4.97;1.37;;;0.20;99.90;;;;;;4935966;29;20398;-85
2022/03/21 04:38:28;;;;;;;5.70;1.27;;;0.20;99.90;;;;;;4936076;29;20805;-85
2022/03/21 04:40:56;;;;;;;6.28;1.30;;;0.30;99.90;;;;;;4935861;29;20410;-85
2022/03/21 04:43:23;;;;;;;4.72;1.35;;;0.30;99.90;;;;;;4935975;29;20401;-86
2022/03/21 04:45:51;;;;;;;4.05;1.10;;;0.20;99.90;;;;;;4918570;29;20900;-85
2022/03/21 04:48:18;;;;;;;5.53;1.20;;;0.30;99.90;;;;;;4934605;29;20473;-85
2022/03/21 04:50:46;;;;;;;4.82;1.27;;;0.20;99.90;;;;;;4934564;29;20801;-85
2022/03/21 04:53:14;;;;;;;3.90;1.23;;;0.20;99.90;;;;;;4934644;29;20398;-85
2022/03/21 04:55:42;;;;;;;5.32;1.40;;;0.20;99.90;;;;;;4934434;29;21022;-85
2022/03/21 04:58:10;;;;;;;3.88;1.30;;;0.20;99.90;;;;;;4934392;29;20488;-85
2022/03/21 05:00:38;;;;;;;4.00;1.13;;;0.20;99.90;;;;;;4934249;29;20416;-85
2022/03/21 05:03:09;;;;;;;5.97;1.60;;;0.20;99.90;;;;;;4915629;29;20405;-85
2022/03/21 05:05:43;;;;;;;2.42;1.13;;;0.20;99.90;;;;;;4935385;29;20426;-86
2022/03/21 05:08:11;;;;;;;5.25;1.38;;;0.20;99.90;;;;;;4935444;29;20684;-85
2022/03/21 05:10:39;;;;;;;4.18;1.20;;;0.10;99.90;;;;;;4933550;29;20414;-85
2022/03/21 05:13:09;;;;;;;5.38;1.27;;;0.20;99.90;;;;;;4935228;29;20437;-85
2022/03/21 05:15:36;;;;;;;5.07;1.30;;;0.20;99.90;;;;;;4935248;29;20397;-84
2022/03/21 05:18:04;;;;;;;3.58;1.15;;;0.20;99.90;;;;;;4934235;29;20474;-85
2022/03/21 05:20:32;;;;;;;4.70;1.23;;;0.20;99.90;;;;;;4933767;29;20410;-86
2022/03/21 05:31:19;;;;;;;5.53;1.40;;;0.20;99.90;;;;;;4914743;29;20398;-85
2022/03/21 05:36:33;;;;;;;3.55;1.10;;;0.20;99.90;;;;;;4934912;29;20487;-85
2022/03/21 05:39:00;;;;;;;5.35;1.30;;;0.30;99.90;;;;;;4933765;29;20896;-84
2022/03/21 05:41:28;;;;;;;6.47;1.50;;;0.30;99.90;;;;;;4929598;29;20506;-86
2022/03/21 05:43:55;;;;;;;5.65;1.40;;;0.30;99.90;;;;;;4915736;29;20403;-86
2022/03/21 05:46:23;;;;;;;3.85;1.23;;;0.40;99.90;;;;;;4915770;29;20487;-86
2022/03/21 05:48:52;;;;;;;4.32;1.40;;;0.40;99.90;;;;;;4915760;29;20494;-86
2022/03/21 05:51:27;;;;;;;3.83;1.20;;;0.40;99.90;;;;;;4917041;29;21005;-85
2022/03/21 05:53:57;;;;;;;6.47;1.40;;;0.50;99.90;;;;;;4925164;29;20452;-86
2022/03/21 05:56:25;;;;;;;4.07;1.20;;;0.40;99.90;;;;;;4913783;29;20417;-86
2022/03/21 05:58:53;;;;;;;5.75;1.25;;;0.50;99.90;;;;;;4928442;29;20771;-86
2022/03/21 06:01:22;;;;;;;5.37;1.23;;;0.50;99.90;;;;;;4921710;29;20415;-87
2022/03/21 06:03:55;;;;;;;4.07;1.45;;;0.60;99.90;;;;;;4918536;29;20424;-86
2022/03/21 06:06:23;;;;;;;4.45;1.30;;;0.50;99.90;;;;;;4920044;29;20498;-86
2022/03/21 06:08:51;;;;;;;6.63;1.48;;;0.70;99.90;;;;;;4919157;29;20437;-87
2022/03/21 06:11:19;;;;;;;5.22;1.38;;;0.80;99.90;;;;;;4911159;29;20934;-87
2022/03/21 06:13:47;;;;;;;7.35;1.45;;;0.80;99.90;;;;;;4925425;29;20758;-87
2022/03/21 06:16:15;;;;;;;7.78;1.65;;;0.90;99.90;;;;;;4926481;29;20754;-89
2022/03/21 06:18:42;;;;;;;5.00;1.40;;;1.00;99.90;;;;;;4929192;29;20829;-86
2022/03/21 06:21:12;;;;;;;3.53;1.40;;;1.10;99.90;;;;;;4913861;29;20462;-85
2022/03/21 06:23:40;;;;;;;4.88;1.13;;;1.00;99.90;;;;;;4927922;29;20457;-86
2022/03/21 06:26:07;;;;;;;5.32;1.30;;;1.10;99.90;;;;;;4928929;29;20407;-86
2022/03/21 06:28:36;;;;;;;3.55;1.30;;;1.20;99.90;;;;;;4928883;29;20916;-86
2022/03/21 06:31:04;;;;;;;3.85;1.20;;;1.30;99.90;;;;;;4933054;29;20418;-86
2022/03/21 06:33:32;;;;;;;4.50;1.70;;;1.40;99.90;;;;;;4933502;29;20463;-87
2022/03/21 06:36:00;;;;;;;7.05;2.10;;;1.50;99.90;;;;;;4920877;29;20482;-86
2022/03/21 06:38:30;;;;;;;4.18;1.33;;;1.70;99.90;;;;;;4920016;29;20617;-86
2022/03/21 06:40:58;;;;;;;6.35;2.38;;;1.90;99.90;;;;;;4932924;29;20449;-86
2022/03/21 06:43:26;;;;;;;4.93;1.00;;;1.90;99.90;;;;;;4917223;29;20401;-86
2022/03/21 06:45:55;;;;;;;9.48;3.08;;;2.20;99.90;;;;;;4931809;29;20492;-87
2022/03/21 06:48:27;;;;;;;6.75;1.10;;;2.30;99.90;;;;;;4916928;29;20492;-87
2022/03/21 06:50:55;;;;;;;9.60;2.22;;;2.50;99.90;;;;;;4934143;29;20398;-86
2022/03/21 06:53:23;;;;;;;3.83;1.10;;;2.40;99.90;;;;;;4917133;29;20402;-87
2022/03/21 06:55:50;;;;;;;2.22;0.90;;;2.50;99.90;;;;;;4932977;29;20397;-86
2022/03/21 06:58:18;;;;;;;3.92;1.05;;;2.60;99.90;;;;;;4934057;29;20501;-86
2022/03/21 07:00:47;;;;;;;8.23;2.78;;;2.70;99.90;;;;;;4931827;29;20497;-85
2022/03/21 07:03:16;;;;;;;3.55;1.00;;;2.90;99.90;;;;;;4914976;29;20879;-86
2022/03/21 07:05:45;;;;;;;4.65;1.10;;;2.90;99.90;;;;;;4898247;29;20907;-86
2022/03/21 07:08:13;;;;;;;4.68;1.20;;;2.90;99.90;;;;;;4915092;29;20403;-86
2022/03/21 07:10:41;;;;;;;5.03;1.00;;;2.90;99.90;;;;;;4898259;29;20824;-86
2022/03/21 07:13:08;;;;;;;8.02;1.20;;;3.10;99.90;;;;;;4929690;29;20431;-87
2022/03/21 07:15:39;;;;;;;4.87;1.90;;;3.20;99.90;;;;;;4914104;29;20423;-87
2022/03/21 07:18:09;;;;;;;3.80;1.20;;;3.40;99.90;;;;;;4898504;29;20840;-86
2022/03/21 07:20:44;;;;;;;5.00;1.30;;;3.40;99.90;;;;;;4938852;29;20430;-84
2022/03/21 07:23:12;;;;;;;3.90;0.88;;;3.50;99.90;;;;;;4929328;29;20418;-86
2022/03/21 07:25:39;;;;;;;3.97;1.15;;;3.80;99.90;;;;;;4925386;29;20455;-86
2022/03/21 07:28:06;;;;;;;4.03;0.83;;;3.80;99.90;;;;;;4921418;29;20420;-85
2022/03/21 07:30:34;;;;;;;2.67;0.90;;;4.00;99.90;;;;;;4925639;29;20410;-86
2022/03/21 07:33:01;;;;;;;3.38;1.05;;;4.20;99.90;;;;;;4929091;29;20413;-86
2022/03/21 07:35:29;;;;;;;3.55;0.95;;;4.40;99.90;;;;;;4908813;29;20528;-84
2022/03/21 07:37:57;;;;;;;3.17;1.00;;;4.40;99.90;;;;;;4930628;29;20417;-86
2022/03/21 07:40:26;;;;;;;2.47;1.00;;;4.30;99.90;;;;;;4935371;29;20414;-86
2022/03/21 07:42:54;;;;;;;3.40;0.80;;;4.20;99.90;;;;;;4935780;29;20892;-87
2022/03/21 07:48:08;;;;;;;4.40;1.13;;;4.40;99.90;;;;;;4935712;29;20960;-86
2022/03/21 07:50:36;;;;;;;9.68;4.03;;;4.30;99.90;;;;;;4937206;29;20398;-85
2022/03/21 07:53:04;;;;;;;13.57;5.95;;;4.10;99.90;;;;;;4936873;29;20854;-86
2022/03/21 07:55:31;;;;;;;11.48;5.72;;;4.00;99.90;;;;;;4936018;29;20915;-86
2022/03/21 07:58:00;;;;;;;9.10;4.00;;;3.90;99.90;;;;;;4935060;29;20746;-86
2022/03/21 08:00:30;;;;;;;12.52;3.97;;;3.80;99.90;;;;;;4919608;29;20438;-86
2022/03/21 08:02:58;;;;;;;8.10;3.40;;;3.70;99.90;;;;;;4936865;29;20397;-86
2022/03/21 08:05:30;;;;;;;6.50;2.60;;;3.70;99.90;;;;;;4919680;29;20453;-87
2022/03/21 08:07:57;;;;;;;6.47;2.50;;;3.70;99.90;;;;;;4935341;29;20817;-87
2022/03/21 08:10:25;;;;;;;5.47;2.40;;;3.70;99.90;;;;;;4934679;29;20645;-86
2022/03/21 08:12:55;;;;;;;9.30;3.00;;;3.70;99.90;;;;;;4935352;29;20846;-87
2022/03/21 08:15:23;;;;;;;8.32;3.20;;;3.70;99.90;;;;;;4936371;29;20412;-86
2022/03/21 08:18:01;;;;;;;9.18;3.25;;;3.80;99.90;;;;;;4936332;29;20409;-87
2022/03/21 08:20:33;;;;;;;9.23;3.28;;;3.80;99.90;;;;;;4935042;29;20490;-87
2022/03/21 08:23:04;;;;;;;11.45;3.50;;;3.80;99.90;;;;;;4935214;29;20401;-87
2022/03/21 08:25:32;;;;;;;9.30;3.15;;;3.90;99.90;;;;;;4936393;29;20432;-87
2022/03/21 08:28:00;;;;;;;10.20;3.70;;;3.90;99.90;;;;;;4935013;29;20966;-87
2022/03/21 08:30:32;;;;;;;9.95;2.95;;;3.90;99.90;;;;;;4936312;29;20401;-86
2022/03/21 08:33:02;;;;;;;9.15;3.10;;;4.00;99.90;;;;;;4935007;29;20398;-87
2022/03/21 08:35:30;;;;;;;11.95;3.58;;;4.00;99.90;;;;;;4935062;29;20405;-87
2022/03/21 08:37:58;;;;;;;11.40;3.97;;;4.00;99.90;;;;;;4936171;29;20405;-87
2022/03/21 08:40:26;;;;;;;14.25;4.47;;;4.00;99.90;;;;;;4919062;29;20493;-87
2022/03/21 08:42:56;;;;;;;12.13;4.40;;;4.10;99.90;;;;;;4935093;29;20892;-87
2022/03/21 08:45:23;;;;;;;13.52;4.63;;;4.10;99.90;;;;;;4934530;29;20394;-88
2022/03/21 08:47:51;;;;;;;11.18;4.60;;;4.10;99.90;;;;;;4919076;29;20410;-88
2022/03/21 08:50:23;;;;;;;12.68;4.90;;;4.20;99.90;;;;;;4935126;29;20981;-88
2022/03/21 08:52:52;;;;;;;12.02;4.88;;;4.20;99.90;;;;;;4934898;29;20450;-87
2022/03/21 08:55:19;;;;;;;12.68;4.53;;;4.20;99.90;;;;;;4934764;29;20402;-88
2022/03/21 08:57:47;;;;;;;12.50;4.75;;;4.30;99.90;;;;;;4934809;29;20430;-86
2022/03/21 09:00:15;;;;;;;14.18;5.43;;;4.40;99.90;;;;;;4934575;29;20449;-88
2022/03/21 09:02:46;;;;;;;14.88;5.93;;;4.40;99.90;;;;;;4935850;29;20421;-87
2022/03/21 09:05:14;;;;;;;14.15;5.70;;;4.50;99.90;;;;;;4933787;29;20494;-88
2022/03/21 09:07:42;;;;;;;17.13;6.72;;;4.60;99.90;;;;;;4918965;29;20430;-87
2022/03/21 09:10:12;;;;;;;19.30;7.50;;;4.70;99.90;;;;;;4934507;29;20413;-88
2022/03/21 09:12:43;;;;;;;16.20;7.60;;;4.70;99.90;;;;;;4918987;29;20400;-88
2022/03/21 09:15:12;;;;;;;17.50;7.68;;;4.80;99.90;;;;;;4934466;29;20885;-88
2022/03/21 09:17:39;;;;;;;14.82;6.00;;;4.80;99.90;;;;;;4906966;29;20400;-88
2022/03/21 09:20:08;;;;;;;14.43;6.32;;;4.90;99.90;;;;;;4944493;29;20901;-88
2022/03/21 09:22:36;;;;;;;12.23;5.00;;;4.90;99.90;;;;;;4965532;28;20923;-87
2022/03/21 09:25:04;;;;;;;14.93;5.80;;;5.00;99.90;;;;;;4914463;29;20411;-88
2022/03/21 09:27:31;;;;;;;12.52;5.82;;;5.20;99.90;;;;;;4927892;29;20485;-89
2022/03/21 09:29:59;;;;;;;11.95;4.97;;;5.30;99.90;;;;;;4935666;29;20684;-88
2022/03/21 09:32:26;;;;;;;8.30;3.90;;;5.40;99.90;;;;;;4934354;29;20417;-88
2022/03/21 09:34:54;;;;;;;8.73;3.50;;;5.40;99.90;;;;;;4934254;29;20428;-87
2022/03/21 09:37:21;;;;;;;9.73;3.63;;;5.40;99.90;;;;;;4935219;29;20489;-88
2022/03/21 09:39:49;;;;;;;6.88;2.58;;;5.80;99.90;;;;;;4918550;29;20412;-88
2022/03/21 09:42:17;;;;;;;6.13;1.87;;;5.90;99.90;;;;;;4917333;29;20421;-88
2022/03/21 09:44:47;;;;;;;5.45;2.40;;;6.00;99.90;;;;;;4917429;29;20529;-87
2022/03/21 09:50:01;;;;;;;3.60;1.00;;;5.90;99.90;;;;;;4923255;29;20440;-88
2022/03/21 09:52:30;;;;;;;4.68;1.27;;;6.20;99.90;;;;;;4924794;29;20404;-86
2022/03/21 09:54:57;;;;;;;3.83;1.48;;;6.30;99.90;;;;;;4910867;29;20413;-88
2022/03/21 09:57:27;;;;;;;4.13;1.30;;;6.50;99.90;;;;;;4921559;29;20437;-88
2022/03/21 09:59:57;;;;;;;2.70;0.90;;;7.00;99.90;;;;;;4924037;29;20403;-86
2022/03/21 10:02:24;;;;;;;3.10;1.00;;;6.90;99.90;;;;;;4927531;29;20413;-86
2022/03/21 10:04:53;;;;;;;3.30;0.90;;;7.00;99.90;;;;;;4923429;29;20494;-87
2022/03/21 10:07:27;;;;;;;4.63;1.23;;;7.30;99.90;;;;;;4922975;29;20450;-87
2022/03/21 10:10:18;;;;;;;2.97;1.13;;;7.00;99.90;;;;;;4901388;29;20404;-88
2022/03/21 10:12:46;;;;;;;3.65;1.02;;;6.80;99.90;;;;;;4918624;29;20401;-86
2022/03/21 10:15:15;;;;;;;3.85;1.10;;;7.30;99.90;;;;;;4906267;29;20398;-87
2022/03/21 10:17:42;;;;;;;4.30;1.00;;;7.40;99.90;;;;;;4925436;29;20906;-87
2022/03/21 10:20:15;;;;;;;3.53;1.10;;;7.40;99.90;;;;;;4923117;29;20809;-86
2022/03/21 10:22:45;;;;;;;4.13;1.13;;;7.60;99.90;;;;;;4917763;29;20410;-87
2022/03/21 10:25:16;;;;;;;4.50;1.20;;;7.70;99.90;;;;;;4916843;29;20496;-86
2022/03/21 10:27:45;;;;;;;6.72;2.53;;;7.60;99.90;;;;;;4933184;29;20881;-87
2022/03/21 10:30:15;;;;;;;4.55;1.10;;;7.50;99.90;;;;;;4933370;29;20483;-86
2022/03/21 10:32:46;;;;;;;3.30;1.10;;;7.90;99.90;;;;;;4933631;29;20482;-87
2022/03/21 10:35:18;;;;;;;2.80;1.15;;;7.80;99.90;;;;;;4917752;29;20405;-87
2022/03/21 10:37:48;;;;;;;3.78;1.10;;;8.10;99.90;;;;;;4934548;29;20881;-88
2022/03/21 10:40:26;;;;;;;4.32;1.15;;;8.00;99.90;;;;;;4934597;29;20508;-88
2022/03/21 10:43:14;;;;;;;2.92;1.10;;;8.00;99.90;;;;;;4917550;29;20421;-88
2022/03/21 10:45:45;;;;;;;3.47;1.20;;;8.00;99.90;;;;;;4933477;29;20397;-87
2022/03/21 10:48:16;;;;;;;3.80;1.15;;;8.20;99.90;;;;;;4933604;29;20398;-88
2022/03/21 10:50:46;;;;;;;3.45;1.20;;;8.00;99.90;;;;;;4933565;29;20437;-87
2022/03/21 10:53:18;;;;;;;3.03;1.03;;;8.30;99.90;;;;;;4917326;29;20437;-87
2022/03/21 10:56:04;;;;;;;3.15;1.20;;;8.60;99.90;;;;;;4917865;29;20413;-88
2022/03/21 10:58:38;;;;;;;2.80;1.10;;;8.40;99.90;;;;;;4949266;29;20405;-88
2022/03/21 11:01:26;;;;;;;2.42;1.10;;;8.50;99.90;;;;;;4949152;29;20410;-88
2022/03/21 11:03:57;;;;;;;2.33;1.00;;;8.60;99.90;;;;;;4917708;29;20394;-88
2022/03/21 11:06:27;;;;;;;3.22;0.88;;;8.70;99.90;;;;;;4917613;29;20461;-89
2022/03/21 11:08:55;;;;;;;2.60;1.10;;;8.90;99.90;;;;;;4936117;29;20880;-88
2022/03/21 11:11:23;;;;;;;4.43;1.15;;;9.10;99.90;;;;;;4921182;29;20401;-89
2022/03/21 11:13:54;;;;;;;4.00;1.40;;;9.30;99.90;;;;;;4920908;29;20474;-88
2022/03/21 11:16:22;;;;;;;3.90;1.20;;;9.70;99.90;;;;;;4922567;29;20410;-88
2022/03/21 11:18:54;;;;;;;3.40;1.10;;;9.70;99.90;;;;;;4917237;29;20399;-87
2022/03/21 11:21:23;;;;;;;2.78;1.13;;;10.10;99.90;;;;;;4935876;29;20436;-88
2022/03/21 11:23:51;;;;;;;4.05;1.35;;;10.20;99.90;;;;;;4936608;29;20408;-87
2022/03/21 11:26:25;;;;;;;3.00;0.95;;;10.30;99.90;;;;;;4932306;29;20415;-89
2022/03/21 11:29:16;;;;;;;2.80;0.90;;;10.30;99.90;;;;;;4925857;29;20396;-88
2022/03/21 11:32:16;;;;;;;2.38;0.80;;;10.70;99.90;;;;;;4917333;29;20879;-85
2022/03/21 11:35:07;;;;;;;1.88;0.90;;;10.40;99.90;;;;;;4933614;29;20440;-88
2022/03/21 11:37:35;;;;;;;2.88;1.20;;;10.40;99.90;;;;;;4936189;29;20409;-88
2022/03/21 11:40:29;;;;;;;3.15;1.15;;;10.50;99.90;;;;;;4920671;29;20501;-87
2022/03/21 11:43:19;;;;;;;1.92;0.80;;;10.60;99.90;;;;;;4936204;29;20414;-88
2022/03/21 11:45:55;;;;;;;3.37;0.90;;;10.50;99.90;;;;;;4935930;29;20465;-88
2022/03/21 11:48:23;;;;;;;6.03;2.42;;;10.60;99.90;;;;;;4924221;29;20407;-87
2022/03/21 11:51:16;;;;;;;3.60;1.30;;;10.70;99.90;;;;;;4915240;29;20397;-89
2022/03/21 11:53:46;;;;;;;2.40;0.80;;;10.70;99.90;;;;;;4918228;29;20423;-87
2022/03/21 11:56:40;;;;;;;1.60;0.73;;;10.90;99.90;;;;;;4926148;29;20416;-88
2022/03/21 11:59:08;;;;;;;1.73;0.80;;;11.30;99.90;;;;;;4934623;29;20398;-88
2022/03/21 12:01:36;;;;;;;2.35;0.90;;;11.40;99.90;;;;;;4928468;29;20409;-88
2022/03/21 12:04:26;;;;;;;2.27;0.90;;;11.50;99.90;;;;;;4926257;29;20412;-88
2022/03/21 12:06:58;;;;;;;3.00;1.00;;;11.40;99.90;;;;;;4916992;29;20914;-87
2022/03/21 12:09:40;;;;;;;4.45;1.20;;;11.30;99.90;;;;;;4924800;29;20441;-87
2022/03/21 12:12:10;;;;;;;2.30;1.00;;;11.70;99.50;;;;;;4927357;29;20469;-87
2022/03/21 12:14:41;;;;;;;2.22;0.95;;;11.80;99.10;;;;;;4904792;29;20399;-87
2022/03/21 12:17:12;;;;;;;2.38;1.00;;;11.90;99.90;;;;;;4917748;29;20408;-87
2022/03/21 12:19:50;;;;;;;3.22;0.90;;;11.80;99.90;;;;;;4910364;29;20403;-87
2022/03/21 12:22:30;;;;;;;2.88;0.80;;;11.90;99.20;;;;;;4916426;29;20478;-88
2022/03/21 12:24:59;;;;;;;2.30;0.90;;;12.10;99.30;;;;;;4926400;29;20920;-88
2022/03/21 12:27:41;;;;;;;2.87;1.00;;;12.20;97.10;;;;;;4927187;29;20419;-88
2022/03/21 12:30:26;;;;;;;5.10;1.00;;;11.80;99.40;;;;;;4936788;29;20418;-87
2022/03/21 12:33:11;;;;;;;2.40;1.00;;;11.90;99.90;;;;;;4928672;29;20495;-87
2022/03/21 12:35:40;;;;;;;1.83;0.80;;;11.90;99.90;;;;;;4928154;29;20622;-87
2022/03/21 12:38:21;;;;;;;2.97;0.90;;;11.90;99.90;;;;;;4929504;29;20442;-86
2022/03/21 12:40:55;;;;;;;3.10;1.05;;;11.80;99.90;;;;;;4928317;29;20422;-86
2022/03/21 12:43:43;;;;;;;3.27;1.10;;;12.10;99.90;;;;;;4907735;29;20418;-87
2022/03/21 12:46:14;;;;;;;3.70;1.00;;;11.90;99.90;;;;;;4928178;29;20440;-88
2022/03/21 12:48:43;;;;;;;4.57;1.13;;;12.00;98.90;;;;;;4947275;28;20450;-87
2022/03/21 12:51:13;;;;;;;2.00;1.00;;;12.00;99.90;;;;;;4926847;29;20881;-87
2022/03/21 12:53:48;;;;;;;3.10;1.00;;;12.20;98.80;;;;;;4931007;29;20826;-87
2022/03/21 12:56:19;;;;;;;2.47;1.15;;;12.50;98.30;;;;;;4945000;29;20450;-89
2022/03/21 12:58:49;;;;;;;3.70;1.10;;;12.60;99.20;;;;;;4934617;29;20417;-87
2022/03/21 13:01:19;;;;;;;3.17;1.00;;;12.50;97.50;;;;;;4939308;29;20497;-87
2022/03/21 13:03:47;;;;;;;2.90;1.08;;;12.30;98.30;;;;;;4934409;29;20410;-86
2022/03/21 13:11:52;;;;;;;3.88;1.17;;;12.70;99.90;;;;;;4932188;29;21550;-87
2022/03/21 13:14:21;;;;;;;4.30;1.35;;;12.50;99.50;;;;;;4933108;29;20512;-87
2022/03/21 13:17:03;;;;;;;3.85;1.40;;;12.40;98.90;;;;;;4932884;29;20494;-86
2022/03/21 13:19:33;;;;;;;3.45;1.20;;;12.40;99.60;;;;;;4935026;29;20436;-87
2022/03/21 13:22:05;;;;;;;2.88;1.20;;;12.60;96.30;;;;;;4919293;29;20508;-86
2022/03/21 13:24:45;;;;;;;2.80;1.10;;;12.90;98.00;;;;;;4935173;29;20398;-85
2022/03/21 13:27:14;;;;;;;3.67;1.30;;;13.10;97.10;;;;;;4918960;29;20401;-86
2022/03/21 13:29:53;;;;;;;3.50;1.33;;;12.90;99.40;;;;;;4919223;29;20413;-86
2022/03/21 13:32:21;;;;;;;3.60;1.40;;;12.80;98.50;;;;;;4932145;29;20910;-85
2022/03/21 13:34:55;;;;;;;4.15;1.27;;;13.00;96.70;;;;;;4931591;29;20403;-86
2022/03/21 13:37:24;;;;;;;2.77;1.23;;;13.20;97.20;;;;;;4915885;29;20687;-87
2022/03/21 13:39:59;;;;;;;3.53;1.30;;;13.30;97.10;;;;;;4931476;29;20395;-86